createdAt,value
2017-06-12T00:00:31.353Z,0
2017-06-12T00:01:31.651Z,0
2017-06-12T00:02:31.634Z,0
2017-06-12T00:03:31.629Z,0
2017-06-12T00:04:31.316Z,0
2017-06-12T00:05:31.611Z,0
2017-06-12T00:06:31.301Z,0
2017-06-12T00:07:31.292Z,0
2017-06-12T00:08:31.593Z,0
2017-06-12T00:09:31.579Z,0
2017-06-12T00:10:31.268Z,0
2017-06-12T00:11:31.259Z,0
2017-06-12T00:12:31.554Z,0
2017-06-12T00:13:31.545Z,0
2017-06-12T00:14:31.535Z,0
2017-06-12T00:15:31.559Z,0
2017-06-12T00:16:31.517Z,0
2017-06-12T00:17:31.507Z,0
2017-06-12T00:18:31.505Z,0
2017-06-12T00:19:31.495Z,0
2017-06-12T00:20:31.490Z,0
2017-06-12T00:21:31.481Z,0
2017-06-12T00:22:31.475Z,0
2017-06-12T00:23:31.465Z,0
2017-06-12T00:24:31.456Z,0
2017-06-12T00:25:31.447Z,0
2017-06-12T00:26:31.438Z,0
2017-06-12T00:27:31.132Z,0
2017-06-12T00:28:31.433Z,0
2017-06-12T00:29:31.414Z,0
2017-06-12T00:30:31.414Z,0
2017-06-12T00:31:31.406Z,0
2017-06-12T00:32:31.387Z,0
2017-06-12T00:33:31.399Z,0
2017-06-12T00:34:31.375Z,0
2017-06-12T00:35:31.066Z,0
2017-06-12T00:36:31.362Z,0
2017-06-12T00:37:31.353Z,0
2017-06-12T00:38:31.348Z,0
2017-06-12T00:39:31.339Z,0
2017-06-12T00:40:31.325Z,0
2017-06-12T00:41:31.322Z,0
2017-06-12T00:42:31.307Z,0
2017-06-12T00:43:31.302Z,0
2017-06-12T00:44:31.302Z,0
2017-06-12T00:45:31.285Z,0
2017-06-12T00:46:31.280Z,0
2017-06-12T00:47:31.268Z,0
2017-06-12T00:48:31.267Z,0
2017-06-12T00:49:31.273Z,0
2017-06-12T00:50:31.245Z,0
2017-06-12T00:51:31.264Z,0
2017-06-12T00:52:31.229Z,0
2017-06-12T00:53:30.921Z,0
2017-06-12T00:54:31.213Z,0
2017-06-12T00:55:31.199Z,0
2017-06-12T00:56:30.889Z,0
2017-06-12T00:57:31.184Z,0
2017-06-12T00:58:31.177Z,0
2017-06-12T00:59:31.165Z,0
2017-06-12T01:00:31.154Z,0
2017-06-12T01:01:31.152Z,0
2017-06-12T01:02:31.139Z,0
2017-06-12T01:03:31.138Z,0
2017-06-12T01:04:31.127Z,0
2017-06-12T01:05:31.116Z,0
2017-06-12T01:06:31.107Z,0
2017-06-12T01:07:31.097Z,0
2017-06-12T01:08:31.095Z,0
2017-06-12T01:09:31.084Z,0
2017-06-12T01:10:31.071Z,0
2017-06-12T01:11:30.763Z,0
2017-06-12T01:12:31.057Z,0
2017-06-12T01:13:30.748Z,0
2017-06-12T01:14:31.044Z,0
2017-06-12T01:15:30.732Z,0
2017-06-12T01:16:31.027Z,0
2017-06-12T01:17:30.715Z,0
2017-06-12T01:18:30.401Z,0
2017-06-12T01:19:30.995Z,0
2017-06-12T01:20:30.996Z,0
2017-06-12T01:21:30.983Z,0
2017-06-12T01:22:30.671Z,0
2017-06-12T01:23:30.968Z,0
2017-06-12T01:24:30.662Z,0
2017-06-12T01:25:30.953Z,0
2017-06-12T01:26:30.941Z,0
2017-06-12T01:27:30.933Z,0
2017-06-12T01:28:30.925Z,0
2017-06-12T01:29:30.926Z,0
2017-06-12T01:30:30.911Z,0
2017-06-12T01:31:30.597Z,0
2017-06-12T01:32:30.290Z,0
2017-06-12T01:33:30.886Z,0
2017-06-12T01:34:30.879Z,0
2017-06-12T01:35:30.879Z,0
2017-06-12T01:36:30.862Z,0
2017-06-12T01:37:30.857Z,0
2017-06-12T01:38:30.846Z,0
2017-06-12T01:39:30.536Z,0
2017-06-12T01:40:30.527Z,0
2017-06-12T01:41:30.820Z,0
2017-06-12T01:42:30.816Z,0
2017-06-12T01:43:30.802Z,0
2017-06-12T01:44:30.792Z,0
2017-06-12T01:45:30.792Z,0
2017-06-12T01:46:30.775Z,0
2017-06-12T01:47:30.776Z,0
2017-06-12T01:48:30.465Z,0
2017-06-12T01:49:30.752Z,0
2017-06-12T01:50:30.747Z,0
2017-06-12T01:51:30.739Z,0
2017-06-12T01:52:30.735Z,0
2017-06-12T01:53:30.719Z,0
2017-06-12T01:54:30.708Z,0
2017-06-12T01:55:30.704Z,0
2017-06-12T01:56:30.696Z,0
2017-06-12T01:57:30.384Z,0
2017-06-12T01:58:30.676Z,0
2017-06-12T01:59:30.671Z,0
2017-06-12T02:00:30.669Z,0
2017-06-12T02:01:30.650Z,0
2017-06-12T02:02:30.049Z,0
2017-06-12T02:03:30.634Z,0
2017-06-12T02:04:30.627Z,0
2017-06-12T02:05:30.626Z,0
2017-06-12T02:06:30.618Z,0
2017-06-12T02:07:30.606Z,0
2017-06-12T02:08:30.598Z,0
2017-06-12T02:09:30.582Z,0
2017-06-12T02:10:30.580Z,0
2017-06-12T02:11:30.567Z,0
2017-06-12T02:12:30.564Z,0
2017-06-12T02:13:30.557Z,0
2017-06-12T02:14:30.545Z,0
2017-06-12T02:15:30.229Z,0
2017-06-12T02:16:30.223Z,0
2017-06-12T02:17:30.521Z,0
2017-06-12T02:18:30.510Z,0
2017-06-12T02:19:30.510Z,0
2017-06-12T02:20:30.496Z,0
2017-06-12T02:21:30.485Z,0
2017-06-12T02:22:30.181Z,0
2017-06-12T02:23:30.473Z,0
2017-06-12T02:24:30.163Z,0
2017-06-12T02:25:30.454Z,0
2017-06-12T02:26:30.445Z,0
2017-06-12T02:27:30.132Z,0
2017-06-12T02:28:30.422Z,0
2017-06-12T02:29:30.417Z,0
2017-06-12T02:30:30.414Z,0
2017-06-12T02:31:30.404Z,0
2017-06-12T02:32:30.393Z,0
2017-06-12T02:33:30.085Z,0
2017-06-12T02:34:30.074Z,0
2017-06-12T02:35:30.365Z,0
2017-06-12T02:36:30.058Z,0
2017-06-12T02:37:30.349Z,0
2017-06-12T02:38:30.340Z,0
2017-06-12T02:39:30.330Z,0
2017-06-12T02:40:30.325Z,0
2017-06-12T02:41:30.309Z,0
2017-06-12T02:42:30.305Z,0
2017-06-12T02:43:30.295Z,0
2017-06-12T02:44:30.290Z,0
2017-06-12T02:45:30.287Z,0
2017-06-12T02:46:30.271Z,0
2017-06-12T02:47:30.261Z,0
2017-06-12T02:48:30.251Z,0
2017-06-12T02:49:30.244Z,0
2017-06-12T02:50:30.237Z,0
2017-06-12T02:51:30.227Z,0
2017-06-12T02:52:30.215Z,0
2017-06-12T02:53:29.907Z,0
2017-06-12T02:54:30.204Z,0
2017-06-12T02:55:30.194Z,0
2017-06-12T02:56:29.879Z,0
2017-06-12T02:57:30.197Z,0
2017-06-12T02:58:30.164Z,0
2017-06-12T02:59:30.162Z,0
2017-06-12T03:00:29.845Z,0
2017-06-12T03:01:30.149Z,0
2017-06-12T03:02:30.131Z,0
2017-06-12T03:03:30.122Z,5
2017-06-12T03:04:30.112Z,5
2017-06-12T03:05:29.806Z,5
2017-06-12T03:06:30.100Z,5
2017-06-12T03:07:30.094Z,5
2017-06-12T03:08:30.079Z,5
2017-06-12T03:09:29.800Z,10
2017-06-12T03:10:29.762Z,10
2017-06-12T03:11:30.055Z,10
2017-06-12T03:12:30.048Z,10
2017-06-12T03:13:30.038Z,15
2017-06-12T03:14:30.031Z,15
2017-06-12T03:15:30.027Z,15
2017-06-12T03:16:30.026Z,20
2017-06-12T03:17:29.999Z,20
2017-06-12T03:18:29.997Z,20
2017-06-12T03:19:29.988Z,25
2017-06-12T03:20:29.974Z,25
2017-06-12T03:21:29.972Z,25
2017-06-12T03:22:29.965Z,30
2017-06-12T03:23:29.650Z,30
2017-06-12T03:24:29.938Z,35
2017-06-12T03:25:29.934Z,40
2017-06-12T03:26:29.928Z,40
2017-06-12T03:27:29.915Z,40
2017-06-12T03:28:29.911Z,45
2017-06-12T03:29:29.898Z,45
2017-06-12T03:30:29.889Z,50
2017-06-12T03:31:29.880Z,50
2017-06-12T03:32:29.871Z,55
2017-06-12T03:33:29.862Z,55
2017-06-12T03:34:29.849Z,55
2017-06-12T03:35:29.842Z,55
2017-06-12T03:36:29.841Z,50
2017-06-12T03:37:29.828Z,55
2017-06-12T03:38:29.515Z,55
2017-06-12T03:39:29.511Z,55
2017-06-12T03:40:29.493Z,60
2017-06-12T03:41:29.791Z,55
2017-06-12T03:42:29.781Z,55
2017-06-12T03:43:29.776Z,50
2017-06-12T03:44:29.762Z,60
2017-06-12T03:45:29.753Z,65
2017-06-12T03:46:29.744Z,70
2017-06-12T03:47:29.737Z,80
2017-06-12T03:48:29.731Z,85
2017-06-12T03:49:29.718Z,85
2017-06-12T03:50:29.402Z,90
2017-06-12T03:51:29.708Z,90
2017-06-12T03:52:29.690Z,105
2017-06-12T03:53:29.684Z,110
2017-06-12T03:54:29.680Z,125
2017-06-12T03:55:29.698Z,130
2017-06-12T03:56:29.659Z,120
2017-06-12T03:57:29.647Z,110
2017-06-12T03:58:29.642Z,105
2017-06-12T03:59:29.629Z,100
2017-06-12T04:00:29.626Z,115
2017-06-12T04:01:29.309Z,130
2017-06-12T04:02:29.601Z,140
2017-06-12T04:03:29.598Z,140
2017-06-12T04:04:29.588Z,145
2017-06-12T04:05:29.580Z,135
2017-06-12T04:06:29.565Z,130
2017-06-12T04:07:29.563Z,130
2017-06-12T04:08:29.250Z,130
2017-06-12T04:09:29.235Z,170
2017-06-12T04:10:29.536Z,180
2017-06-12T04:11:29.531Z,165
2017-06-12T04:12:29.519Z,160
2017-06-12T04:13:29.509Z,165
2017-06-12T04:14:29.497Z,150
2017-06-12T04:15:29.493Z,130
2017-06-12T04:16:29.470Z,110
2017-06-12T04:17:29.475Z,95
2017-06-12T04:18:29.455Z,110
2017-06-12T04:19:29.449Z,130
2017-06-12T04:20:29.447Z,155
2017-06-12T04:21:29.130Z,175
2017-06-12T04:22:29.421Z,165
2017-06-12T04:23:29.418Z,150
2017-06-12T04:24:29.401Z,135
2017-06-12T04:25:29.398Z,115
2017-06-12T04:26:29.384Z,115
2017-06-12T04:27:29.378Z,105
2017-06-12T04:28:29.368Z,110
2017-06-12T04:29:29.353Z,100
2017-06-12T04:30:29.355Z,95
2017-06-12T04:31:29.039Z,80
2017-06-12T04:32:29.326Z,90
2017-06-12T04:33:29.022Z,95
2017-06-12T04:34:29.307Z,95
2017-06-12T04:35:29.304Z,105
2017-06-12T04:36:29.293Z,85
2017-06-12T04:37:29.292Z,100
2017-06-12T04:38:29.269Z,105
2017-06-12T04:39:28.960Z,100
2017-06-12T04:40:29.252Z,85
2017-06-12T04:41:28.949Z,95
2017-06-12T04:42:29.232Z,115
2017-06-12T04:43:29.224Z,135
2017-06-12T04:44:29.215Z,150
2017-06-12T04:45:29.211Z,150
2017-06-12T04:46:29.195Z,150
2017-06-12T04:47:29.181Z,180
2017-06-12T04:48:29.177Z,195
2017-06-12T04:49:29.169Z,140
2017-06-12T04:50:29.157Z,175
2017-06-12T04:51:29.142Z,190
2017-06-12T04:52:29.139Z,185
2017-06-12T04:53:29.128Z,190
2017-06-12T04:54:29.120Z,245
2017-06-12T04:55:29.111Z,295
2017-06-12T04:56:28.801Z,270
2017-06-12T04:57:28.788Z,225
2017-06-12T04:58:29.082Z,220
2017-06-12T04:59:29.075Z,270
2017-06-12T05:00:29.069Z,275
2017-06-12T05:01:29.077Z,245
2017-06-12T05:02:29.048Z,220
2017-06-12T05:03:29.031Z,210
2017-06-12T05:04:29.026Z,175
2017-06-12T05:05:28.737Z,220
2017-06-12T05:06:28.999Z,275
2017-06-12T05:07:28.689Z,295
2017-06-12T05:08:28.984Z,280
2017-06-12T05:09:28.978Z,295
2017-06-12T05:10:28.965Z,255
2017-06-12T05:11:28.963Z,205
2017-06-12T05:12:28.952Z,235
2017-06-12T05:13:28.639Z,315
2017-06-12T05:14:28.934Z,520
2017-06-12T05:15:28.614Z,1080
2017-06-12T05:16:28.917Z,1295
2017-06-12T05:17:28.898Z,1160
2017-06-12T05:18:28.589Z,880
2017-06-12T05:19:28.884Z,905
2017-06-12T05:20:28.871Z,880
2017-06-12T05:21:28.869Z,925
2017-06-12T05:22:28.852Z,850
2017-06-12T05:23:28.847Z,920
2017-06-12T05:24:28.834Z,775
2017-06-12T05:25:28.821Z,775
2017-06-12T05:26:28.822Z,715
2017-06-12T05:27:28.806Z,735
2017-06-12T05:28:28.811Z,940
2017-06-12T05:29:28.826Z,1185
2017-06-12T05:30:28.785Z,1105
2017-06-12T05:31:28.774Z,910
2017-06-12T05:32:28.465Z,925
2017-06-12T05:33:28.755Z,1455
2017-06-12T05:34:28.745Z,1040
2017-06-12T05:35:28.732Z,1035
2017-06-12T05:36:28.731Z,1465
2017-06-12T05:37:28.723Z,1700
2017-06-12T05:38:28.709Z,1800
2017-06-12T05:39:28.698Z,1660
2017-06-12T05:40:28.693Z,1855
2017-06-12T05:41:28.381Z,1150
2017-06-12T05:42:28.675Z,1615
2017-06-12T05:43:28.669Z,1460
2017-06-12T05:44:28.654Z,1470
2017-06-12T05:45:28.654Z,560
2017-06-12T05:46:28.336Z,1350
2017-06-12T05:47:28.338Z,1470
2017-06-12T05:48:28.622Z,1490
2017-06-12T05:49:28.320Z,1560
2017-06-12T05:50:28.611Z,1535
2017-06-12T05:51:28.601Z,1775
2017-06-12T05:52:28.593Z,1640
2017-06-12T05:53:28.582Z,1695
2017-06-12T05:54:28.571Z,1865
2017-06-12T05:55:28.570Z,2020
2017-06-12T05:56:28.258Z,1805
2017-06-12T05:57:28.555Z,1535
2017-06-12T05:58:28.239Z,1850
2017-06-12T05:59:28.540Z,885
2017-06-12T06:00:28.528Z,2235
2017-06-12T06:01:28.525Z,895
2017-06-12T06:02:28.506Z,570
2017-06-12T06:03:28.505Z,1270
2017-06-12T06:04:28.499Z,2150
2017-06-12T06:05:28.485Z,960
2017-06-12T06:06:28.181Z,1635
2017-06-12T06:07:28.173Z,2075
2017-06-12T06:08:28.467Z,785
2017-06-12T06:09:27.851Z,1250
2017-06-12T06:10:28.445Z,1585
2017-06-12T06:11:28.438Z,895
2017-06-12T06:12:28.437Z,2470
2017-06-12T06:13:28.124Z,1575
2017-06-12T06:14:28.116Z,1935
2017-06-12T06:15:28.411Z,900
2017-06-12T06:16:28.102Z,1830
2017-06-12T06:17:28.396Z,2875
2017-06-12T06:18:28.384Z,1390
2017-06-12T06:19:28.374Z,1605
2017-06-12T06:20:28.378Z,1795
2017-06-12T06:21:28.363Z,1245
2017-06-12T06:22:28.357Z,1170
2017-06-12T06:23:28.346Z,2165
2017-06-12T06:24:28.335Z,1040
2017-06-12T06:25:28.328Z,885
2017-06-12T06:26:28.320Z,2235
2017-06-12T06:27:28.313Z,2010
2017-06-12T06:28:28.310Z,1150
2017-06-12T06:29:28.515Z,3260
2017-06-12T06:33:01.357Z,3040
2017-06-12T06:33:28.274Z,3035
2017-06-12T06:34:28.260Z,2825
2017-06-12T06:35:28.250Z,2705
2017-06-12T06:36:28.245Z,2385
2017-06-12T06:37:28.238Z,2445
2017-06-12T06:38:28.234Z,2540
2017-06-12T06:39:27.816Z,1740
2017-06-12T06:40:28.218Z,1770
2017-06-12T06:41:28.203Z,1640
2017-06-12T06:42:28.206Z,1820
2017-06-12T06:43:28.191Z,1705
2017-06-12T06:44:27.892Z,1625
2017-06-12T06:45:28.177Z,1840
2017-06-12T06:46:28.170Z,2705
2017-06-12T06:47:27.859Z,1835
2017-06-12T06:48:27.867Z,2105
2017-06-12T06:49:27.840Z,1720
2017-06-12T06:50:28.136Z,3015
2017-06-12T06:51:27.541Z,2565
2017-06-12T06:52:27.833Z,1560
2017-06-12T06:53:28.109Z,1230
2017-06-12T06:54:28.107Z,1100
2017-06-12T06:55:28.091Z,1185
2017-06-12T06:56:27.786Z,2115
2017-06-12T06:57:28.077Z,1720
2017-06-12T06:58:28.085Z,1750
2017-06-12T06:59:28.055Z,1425
2017-06-12T07:00:28.068Z,1175
2017-06-12T07:01:28.047Z,1255
2017-06-12T07:02:28.035Z,1350
2017-06-12T07:03:28.037Z,1040
2017-06-12T07:04:27.739Z,775
2017-06-12T07:05:27.702Z,780
2017-06-12T07:06:27.694Z,720
2017-06-12T07:07:28.001Z,620
2017-06-12T07:08:27.993Z,540
2017-06-12T07:09:27.970Z,455
2017-06-12T07:10:27.656Z,435
2017-06-12T07:11:27.947Z,490
2017-06-12T07:12:41.576Z,885
2017-06-12T07:13:27.559Z,1190
2017-06-12T07:14:27.934Z,1000
2017-06-12T07:15:27.613Z,915
2017-06-12T07:16:27.902Z,735
2017-06-12T07:17:27.909Z,595
2017-06-12T07:18:28.099Z,495
2017-06-12T07:19:27.597Z,515
2017-06-12T07:20:27.272Z,495
2017-06-12T07:21:27.876Z,545
2017-06-12T07:22:27.866Z,545
2017-06-12T07:23:27.861Z,505
2017-06-12T07:24:27.845Z,445
2017-06-12T07:25:27.833Z,390
2017-06-12T07:26:27.510Z,355
2017-06-12T07:27:27.512Z,465
2017-06-12T07:28:27.206Z,855
2017-06-12T07:29:27.797Z,900
2017-06-12T07:30:27.792Z,1435
2017-06-12T07:31:27.780Z,1375
2017-06-12T07:32:27.770Z,1110
2017-06-12T07:33:27.445Z,980
2017-06-12T07:34:27.442Z,810
2017-06-12T07:35:27.725Z,630
2017-06-12T07:36:27.422Z,590
2017-06-12T07:37:27.716Z,630
2017-06-12T07:38:27.696Z,570
2017-06-12T07:39:27.697Z,540
2017-06-12T07:40:27.383Z,605
2017-06-12T07:41:27.670Z,735
2017-06-12T07:42:27.666Z,660
2017-06-12T07:43:27.654Z,665
2017-06-12T07:44:27.650Z,570
2017-06-12T07:45:27.638Z,560
2017-06-12T07:46:27.629Z,580
2017-06-12T07:47:27.618Z,610
2017-06-12T07:48:27.609Z,630
2017-06-12T07:49:27.797Z,580
2017-06-12T07:50:40.971Z,780
2017-06-12T07:51:27.578Z,1010
2017-06-12T07:52:27.568Z,985
2017-06-12T07:53:27.558Z,865
2017-06-12T07:54:27.550Z,960
2017-06-12T07:55:27.538Z,910
2017-06-12T07:56:27.529Z,770
2017-06-12T07:57:27.523Z,585
2017-06-12T07:58:27.221Z,470
2017-06-12T07:59:27.502Z,445
2017-06-12T08:00:27.391Z,415
2017-06-12T08:01:27.184Z,515
2017-06-12T08:02:27.173Z,865
2017-06-12T08:03:27.464Z,785
2017-06-12T08:04:27.456Z,755
2017-06-12T08:05:27.149Z,715
2017-06-12T08:06:26.835Z,685
2017-06-12T08:07:27.428Z,530
2017-06-12T08:08:26.814Z,515
2017-06-12T08:09:27.410Z,610
2017-06-12T08:10:27.401Z,855
2017-06-12T08:11:26.788Z,985
2017-06-12T08:12:26.777Z,780
2017-06-12T08:13:27.374Z,610
2017-06-12T08:14:27.365Z,580
2017-06-12T08:15:27.388Z,525
2017-06-12T08:16:27.345Z,485
2017-06-12T08:17:27.333Z,495
2017-06-12T08:18:27.327Z,425
2017-06-12T08:19:27.321Z,410
2017-06-12T08:20:27.313Z,460
2017-06-12T08:21:27.296Z,560
2017-06-12T08:22:27.489Z,750
2017-06-12T08:23:27.276Z,870
2017-06-12T08:24:27.267Z,750
2017-06-12T08:25:27.265Z,665
2017-06-12T08:26:27.253Z,670
2017-06-12T08:27:41.890Z,570
2017-06-12T08:28:27.130Z,490
2017-06-12T08:29:26.929Z,500
2017-06-12T08:30:27.215Z,510
2017-06-12T08:31:26.906Z,540
2017-06-12T08:32:26.900Z,440
2017-06-12T08:33:27.385Z,385
2017-06-12T08:34:26.881Z,390
2017-06-12T08:35:26.866Z,370
2017-06-12T08:36:27.167Z,345
2017-06-12T08:37:26.853Z,325
2017-06-12T08:38:27.139Z,315
2017-06-12T08:39:26.830Z,280
2017-06-12T08:40:27.121Z,290
2017-06-12T08:41:27.112Z,245
2017-06-12T08:42:27.112Z,340
2017-06-12T08:43:27.102Z,365
2017-06-12T08:44:27.094Z,335
2017-06-12T08:45:27.079Z,410
2017-06-12T08:46:26.771Z,485
2017-06-12T08:47:26.765Z,460
2017-06-12T08:48:27.058Z,605
2017-06-12T08:49:27.057Z,605
2017-06-12T08:50:27.038Z,465
2017-06-12T08:51:27.037Z,350
2017-06-12T08:52:27.024Z,365
2017-06-12T08:53:26.716Z,395
2017-06-12T08:54:27.006Z,350
2017-06-12T08:55:26.999Z,325
2017-06-12T08:56:26.986Z,320
2017-06-12T08:57:26.986Z,370
2017-06-12T08:58:26.972Z,435
2017-06-12T08:59:26.961Z,395
2017-06-12T09:00:26.651Z,535
2017-06-12T09:01:26.941Z,705
2017-06-12T09:02:26.937Z,1655
2017-06-12T09:03:26.927Z,1665
2017-06-12T09:04:26.917Z,1315
2017-06-12T09:05:26.811Z,1085
2017-06-12T09:06:26.805Z,905
2017-06-12T09:07:26.593Z,800
2017-06-12T09:08:26.894Z,725
2017-06-12T09:09:26.574Z,665
2017-06-12T09:10:26.869Z,560
2017-06-12T09:11:27.065Z,505
2017-06-12T09:12:26.847Z,475
2017-06-12T09:13:26.841Z,435
2017-06-12T09:14:26.226Z,510
2017-06-12T09:15:26.849Z,890
2017-06-12T09:16:26.511Z,1625
2017-06-12T09:17:26.807Z,2040
2017-06-12T09:18:26.794Z,1935
2017-06-12T09:19:26.786Z,1720
2017-06-12T09:20:26.778Z,1355
2017-06-12T09:21:26.764Z,1230
2017-06-12T09:22:26.764Z,950
2017-06-12T09:23:26.747Z,965
2017-06-12T09:24:26.733Z,815
2017-06-12T09:25:26.732Z,835
2017-06-12T09:26:26.725Z,1020
2017-06-12T09:27:26.717Z,1035
2017-06-12T09:28:26.703Z,1265
2017-06-12T09:29:26.692Z,1240
2017-06-12T09:30:26.088Z,1325
2017-06-12T09:31:26.677Z,1510
2017-06-12T09:32:26.671Z,1435
2017-06-12T09:33:26.668Z,1390
2017-06-12T09:34:26.651Z,1665
2017-06-12T09:35:26.650Z,1470
2017-06-12T09:36:26.638Z,1445
2017-06-12T09:37:26.633Z,1655
2017-06-12T09:38:26.829Z,1025
2017-06-12T09:39:26.518Z,1145
2017-06-12T09:40:26.608Z,1610
2017-06-12T09:41:26.595Z,2505
2017-06-12T09:42:26.594Z,1995
2017-06-12T09:43:26.787Z,1870
2017-06-12T09:44:26.785Z,2100
2017-06-12T09:45:26.564Z,2020
2017-06-12T09:46:26.562Z,1800
2017-06-12T09:47:26.548Z,1705
2017-06-12T09:48:26.740Z,1395
2017-06-12T09:49:26.735Z,1595
2017-06-12T09:50:26.524Z,2470
2017-06-12T09:51:26.212Z,2675
2017-06-12T09:52:26.509Z,1545
2017-06-12T09:53:26.197Z,1275
2017-06-12T09:54:26.498Z,1410
2017-06-12T09:55:26.189Z,1535
2017-06-12T09:56:26.179Z,1480
2017-06-12T09:57:26.470Z,1475
2017-06-12T09:58:26.472Z,1230
2017-06-12T09:59:26.150Z,1325
2017-06-12T10:00:26.447Z,1180
2017-06-12T10:01:26.440Z,1175
2017-06-12T10:02:26.433Z,945
2017-06-12T10:03:26.122Z,1015
2017-06-12T10:04:25.811Z,1090
2017-06-12T10:05:26.106Z,1060
2017-06-12T10:06:26.101Z,1225
2017-06-12T10:07:26.126Z,1585
2017-06-12T10:08:26.092Z,1180
2017-06-12T10:09:26.087Z,1025
2017-06-12T10:10:26.071Z,1200
2017-06-12T10:11:26.065Z,1695
2017-06-12T10:12:26.352Z,2750
2017-06-12T10:13:26.350Z,2280
2017-06-12T10:14:26.337Z,1720
2017-06-12T10:15:26.333Z,1470
2017-06-12T10:16:26.021Z,1255
2017-06-12T10:17:25.715Z,935
2017-06-12T10:18:26.314Z,710
2017-06-12T10:19:26.305Z,625
2017-06-12T10:20:26.296Z,695
2017-06-12T10:21:26.296Z,810
2017-06-12T10:22:25.984Z,650
2017-06-12T10:23:26.275Z,585
2017-06-12T10:24:26.269Z,595
2017-06-12T10:25:26.261Z,590
2017-06-12T10:26:26.454Z,590
2017-06-12T10:27:25.945Z,490
2017-06-12T10:28:26.241Z,335
2017-06-12T10:29:26.228Z,220
2017-06-12T10:30:25.921Z,280
2017-06-12T10:31:26.214Z,350
2017-06-12T10:32:26.206Z,315
2017-06-12T10:33:26.198Z,275
2017-06-12T10:34:25.888Z,280
2017-06-12T10:35:26.182Z,455
2017-06-12T10:36:26.179Z,485
2017-06-12T10:37:25.863Z,505
2017-06-12T10:38:25.855Z,415
2017-06-12T10:39:26.151Z,345
2017-06-12T10:40:25.537Z,305
2017-06-12T10:41:25.833Z,305
2017-06-12T10:42:26.112Z,320
2017-06-12T10:43:26.107Z,300
2017-06-12T10:44:26.104Z,270
2017-06-12T10:45:25.791Z,275
2017-06-12T10:46:25.787Z,285
2017-06-12T10:47:26.075Z,280
2017-06-12T10:48:26.067Z,265
2017-06-12T10:49:26.057Z,310
2017-06-12T10:50:25.748Z,310
2017-06-12T10:51:25.744Z,300
2017-06-12T10:52:25.435Z,395
2017-06-12T10:53:25.724Z,460
2017-06-12T10:54:26.217Z,575
2017-06-12T10:55:26.005Z,430
2017-06-12T10:56:25.695Z,330
2017-06-12T10:57:25.685Z,365
2017-06-12T10:58:25.708Z,540
2017-06-12T10:59:25.676Z,640
2017-06-12T11:00:25.665Z,970
2017-06-12T11:01:25.962Z,1130
2017-06-12T11:02:25.949Z,1235
2017-06-12T11:03:25.636Z,1145
2017-06-12T11:04:25.335Z,1265
2017-06-12T11:05:25.924Z,1715
2017-06-12T11:06:25.918Z,1265
2017-06-12T11:07:25.609Z,1290
2017-06-12T11:08:25.910Z,885
2017-06-12T11:09:25.587Z,775
2017-06-12T11:10:25.588Z,795
2017-06-12T11:11:25.874Z,695
2017-06-12T11:12:25.268Z,640
2017-06-12T11:13:25.263Z,585
2017-06-12T11:14:25.858Z,865
2017-06-12T11:15:25.842Z,1060
2017-06-12T11:16:25.839Z,870
2017-06-12T11:17:25.831Z,705
2017-06-12T11:18:25.824Z,755
2017-06-12T11:19:25.512Z,810
2017-06-12T11:20:25.800Z,730
2017-06-12T11:21:25.495Z,740
2017-06-12T11:22:25.793Z,780
2017-06-12T11:23:25.799Z,735
2017-06-12T11:24:25.774Z,605
2017-06-12T11:25:25.760Z,510
2017-06-12T11:26:25.766Z,410
2017-06-12T11:27:25.752Z,430
2017-06-12T11:28:25.441Z,560
2017-06-12T11:29:25.427Z,2030
2017-06-12T11:30:25.729Z,1410
2017-06-12T11:31:25.717Z,1070
2017-06-12T11:32:25.708Z,1040
2017-06-12T11:33:25.704Z,1690
2017-06-12T11:34:25.694Z,1940
2017-06-12T11:35:25.679Z,1480
2017-06-12T11:36:25.675Z,1675
2017-06-12T11:37:25.366Z,1015
2017-06-12T11:38:25.660Z,1000
2017-06-12T11:39:25.649Z,1440
2017-06-12T11:40:25.645Z,1045
2017-06-12T11:41:25.330Z,640
2017-06-12T11:42:24.752Z,505
2017-06-12T11:43:25.321Z,490
2017-06-12T11:44:25.310Z,590
2017-06-12T11:45:25.595Z,605
2017-06-12T11:46:25.605Z,540
2017-06-12T11:47:25.587Z,600
2017-06-12T11:48:25.278Z,725
2017-06-12T11:49:25.263Z,880
2017-06-12T11:50:25.565Z,910
2017-06-12T11:51:25.551Z,1245
2017-06-12T11:52:25.542Z,1130
2017-06-12T11:53:25.538Z,700
2017-06-12T11:54:25.534Z,505
2017-06-12T11:55:25.523Z,545
2017-06-12T11:56:25.514Z,1040
2017-06-12T11:57:25.505Z,1265
2017-06-12T11:58:25.191Z,1190
2017-06-12T11:59:25.486Z,1045
2017-06-12T12:00:25.476Z,790
2017-06-12T12:01:25.175Z,665
2017-06-12T12:02:25.465Z,830
2017-06-12T12:03:24.853Z,670
2017-06-12T12:04:24.842Z,510
2017-06-12T12:05:25.442Z,390
2017-06-12T12:06:25.429Z,350
2017-06-12T12:07:25.419Z,360
2017-06-12T12:08:25.416Z,385
2017-06-12T12:09:25.408Z,425
2017-06-12T12:10:25.400Z,495
2017-06-12T12:11:25.392Z,365
2017-06-12T12:12:25.379Z,290
2017-06-12T12:13:25.372Z,275
2017-06-12T12:14:25.361Z,330
2017-06-12T12:15:25.348Z,310
2017-06-12T12:16:25.347Z,350
2017-06-12T12:17:25.360Z,350
2017-06-12T12:18:24.725Z,330
2017-06-12T12:19:25.320Z,365
2017-06-12T12:20:25.308Z,365
2017-06-12T12:21:24.998Z,390
2017-06-12T12:22:25.295Z,420
2017-06-12T12:23:24.981Z,415
2017-06-12T12:24:25.275Z,440
2017-06-12T12:25:25.264Z,400
2017-06-12T12:26:25.262Z,375
2017-06-12T12:27:25.255Z,395
2017-06-12T12:28:25.238Z,360
2017-06-12T12:29:25.226Z,390
2017-06-12T12:30:25.224Z,520
2017-06-12T12:31:25.220Z,535
2017-06-12T12:32:24.902Z,605
2017-06-12T12:33:25.196Z,625
2017-06-12T12:34:24.887Z,735
2017-06-12T12:35:25.185Z,855
2017-06-12T12:36:25.172Z,990
2017-06-12T12:37:25.164Z,890
2017-06-12T12:38:25.157Z,735
2017-06-12T12:39:25.150Z,800
2017-06-12T12:40:25.136Z,830
2017-06-12T12:41:24.829Z,930
2017-06-12T12:42:25.115Z,935
2017-06-12T12:43:25.116Z,995
2017-06-12T12:44:25.103Z,1040
2017-06-12T12:45:25.108Z,1000
2017-06-12T12:46:25.088Z,755
2017-06-12T12:47:25.085Z,835
2017-06-12T12:48:25.082Z,1220
2017-06-12T12:49:25.060Z,1985
2017-06-12T12:50:25.055Z,1560
2017-06-12T12:51:25.044Z,1525
2017-06-12T12:52:25.041Z,1715
2017-06-12T12:53:24.426Z,1750
2017-06-12T12:54:25.020Z,1565
2017-06-12T12:55:25.019Z,1640
2017-06-12T12:56:25.017Z,3015
2017-06-12T12:57:24.997Z,2485
2017-06-12T12:58:24.993Z,3025
2017-06-12T12:59:24.680Z,3705
2017-06-12T13:00:24.373Z,4190
2017-06-12T13:01:24.966Z,4995
2017-06-12T13:02:24.355Z,4745
2017-06-12T13:03:24.952Z,1400
2017-06-12T13:04:24.645Z,1400
2017-06-12T13:05:24.932Z,2595
2017-06-12T13:06:24.926Z,3110
2017-06-12T13:07:24.617Z,4260
2017-06-12T13:08:24.911Z,1895
2017-06-12T13:09:24.901Z,1440
2017-06-12T13:10:24.896Z,1140
2017-06-12T13:11:24.886Z,1200
2017-06-12T13:12:24.883Z,1595
2017-06-12T13:13:24.873Z,1575
2017-06-12T13:14:24.865Z,1460
2017-06-12T13:15:24.863Z,5075
2017-06-12T13:16:24.856Z,1825
2017-06-12T13:17:24.544Z,1260
2017-06-12T13:18:24.834Z,1645
2017-06-12T13:19:24.826Z,2010
2017-06-12T13:20:24.215Z,1110
2017-06-12T13:21:24.511Z,895
2017-06-12T13:22:24.809Z,970
2017-06-12T13:23:24.804Z,825
2017-06-12T13:24:24.793Z,745
2017-06-12T13:25:24.484Z,830
2017-06-12T13:26:24.774Z,1330
2017-06-12T13:27:24.160Z,1440
2017-06-12T13:28:24.761Z,1300
2017-06-12T13:29:24.752Z,1580
2017-06-12T13:30:24.747Z,2030
2017-06-12T13:31:24.735Z,1370
2017-06-12T13:32:24.132Z,1050
2017-06-12T13:33:24.721Z,1395
2017-06-12T13:34:24.448Z,2055
2017-06-12T13:35:24.705Z,1355
2017-06-12T13:36:24.709Z,1755
2017-06-12T13:37:24.695Z,1350
2017-06-12T13:38:24.085Z,1470
2017-06-12T13:39:24.680Z,1430
2017-06-12T13:40:24.710Z,1320
2017-06-12T13:41:24.666Z,1810
2017-06-12T13:42:24.358Z,2925
2017-06-12T13:43:24.354Z,2945
2017-06-12T13:44:24.357Z,3705
2017-06-12T13:45:24.635Z,1490
2017-06-12T13:46:24.331Z,2090
2017-06-12T13:47:24.328Z,2955
2017-06-12T13:48:24.325Z,2255
2017-06-12T13:49:24.313Z,5020
2017-06-12T13:50:24.304Z,4950
2017-06-12T13:51:24.298Z,1640
2017-06-12T13:52:24.597Z,1245
2017-06-12T13:53:24.290Z,1215
2017-06-12T13:54:24.279Z,1265